Time;durP1;ratioP1;P1;durP2;ratioP2;P2;SDS_P1;SDS_P2;PMS_P1;PMS_P2;Temp;Humidity;BMP_temperature;BMP_pressure;BME280_temperature;BME280_humidity;BME280_pressure;Samples;Min_cycle;Max_cycle;Signal;HPM_P1;HPM_P2
2022/09/19 00:01:56;;;;;;;13.35;4.10;;;;;;;6.63;100.00;101607.09;6063198;23;20042;-90
2022/09/19 00:04:32;;;;;;;18.52;4.13;;;;;;;6.70;100.00;101621.94;6063393;23;20215;-94
2022/09/19 00:06:58;;;;;;;12.20;3.88;;;;;;;6.63;100.00;101606.25;6040241;23;20512;-92
2022/09/19 00:09:27;;;;;;;17.50;4.18;;;;;;;6.67;100.00;101616.72;6064456;23;20006;-91
2022/09/19 00:11:53;;;;;;;20.27;4.63;;;;;;;6.62;100.00;101612.44;6064816;23;20509;-92
2022/09/19 00:14:23;;;;;;;15.90;4.05;;;;;;;6.63;100.00;101607.09;6063579;23;20034;-92
2022/09/19 00:16:54;;;;;;;16.08;4.60;;;;;;;6.63;100.00;101619.47;6064312;23;20006;-90
2022/09/19 00:19:20;;;;;;;12.18;4.45;;;;;;;6.61;100.00;101613.34;6063355;23;20315;-90
2022/09/19 00:21:47;;;;;;;20.10;4.28;;;;;;;6.62;100.00;101615.09;6064668;23;20002;-91
2022/09/19 00:27:04;;;;;;;13.15;4.53;;;;;;;6.55;100.00;101618.75;6062664;23;20074;-93
2022/09/19 00:29:32;;;;;;;15.50;4.03;;;;;;;6.55;100.00;101624.03;6063944;23;20011;-90
2022/09/19 00:31:57;;;;;;;15.07;3.92;;;;;;;6.49;100.00;101620.63;6063453;23;20003;-93
2022/09/19 00:34:23;;;;;;;13.27;3.83;;;;;;;6.53;100.00;101621.44;6064412;23;20329;-93
2022/09/19 00:36:49;;;;;;;14.77;3.20;;;;;;;6.52;100.00;101614.44;6065440;23;20094;-93
2022/09/19 00:39:17;;;;;;;14.50;3.85;;;;;;;6.50;100.00;101621.50;6064104;23;20019;-91
2022/09/19 00:41:43;;;;;;;12.20;4.20;;;;;;;6.46;100.00;101626.00;6038988;23;20429;-93
2022/09/19 00:44:21;;;;;;;16.98;3.70;;;;;;;6.35;100.00;101601.53;6063494;23;20451;-93
2022/09/19 00:46:49;;;;;;;16.83;3.75;;;;;;;6.44;100.00;101627.81;6064691;23;20078;-92
2022/09/19 00:49:15;;;;;;;17.80;4.65;;;;;;;6.46;100.00;101626.00;6038488;23;20017;-93
2022/09/19 00:51:47;;;;;;;20.20;4.53;;;;;;;6.42;100.00;101619.03;6038479;23;20093;-92
2022/09/19 00:54:16;;;;;;;16.08;4.45;;;;;;;6.36;100.00;101607.72;6036689;23;20013;-92
2022/09/19 00:56:45;;;;;;;15.98;3.70;;;;;;;6.47;100.00;101625.06;6062902;23;20015;-92
2022/09/19 00:59:11;;;;;;;20.83;4.10;;;;;;;6.46;100.00;101626.00;6064348;23;20021;-93
2022/09/19 01:01:38;;;;;;;15.82;3.70;;;;;;;6.42;100.00;101612.88;6063185;23;20018;-90
2022/09/19 01:04:14;;;;;;;13.85;3.92;;;;;;;6.35;100.00;101606.81;6063832;23;20373;-93
2022/09/19 01:07:13;;;;;;;14.02;3.40;;;;;;;6.45;100.00;101624.25;6062964;23;20467;-90
2022/09/19 01:10:04;;;;;;;11.43;3.40;;;;;;;6.45;100.00;101624.25;6063779;23;20002;-94
2022/09/19 01:12:46;;;;;;;12.85;3.00;;;;;;;6.39;100.00;101620.84;6038728;23;20013;-92
2022/09/19 01:15:26;;;;;;;13.25;3.65;;;;;;;6.41;100.00;101627.88;6064114;23;20009;-92
2022/09/19 01:17:59;;;;;;;14.82;3.65;;;;;;;6.39;100.00;101634.94;6065195;23;20074;-92
2022/09/19 01:20:53;;;;;;;16.05;3.80;;;;;;;6.40;100.00;101642.00;6039189;23;20025;-94
2022/09/19 01:23:27;;;;;;;;;;;;;;;6.36;100.00;101640.31;6066057;23;20007;-92
2022/09/19 01:26:19;;;;;;;16.27;3.90;;;;;;;6.40;100.00;101649.06;6064456;23;19988;-93
2022/09/19 01:28:59;;;;;;;12.50;4.43;;;;;;;6.37;100.00;101652.63;5896631;24;20148;-91
2022/09/19 01:31:30;;;;;;;18.30;4.43;;;;;;;6.35;100.00;101640.34;5920992;24;20385;-93
2022/09/19 01:34:11;;;;;;;14.70;3.60;;;;;;;6.34;100.00;101652.69;5902669;24;20043;-91
2022/09/19 01:36:47;;;;;;;15.68;3.97;;;;;;;6.34;100.00;101655.31;5928854;24;20020;-92
2022/09/19 01:39:17;;;;;;;20.48;5.25;;;;;;;6.23;100.00;101638.84;5923770;24;20028;-92
2022/09/19 01:41:50;;;;;;;18.52;4.80;;;;;;;6.31;100.00;101655.41;5923462;24;20017;-91
2022/09/19 01:44:21;;;;;;;10.07;4.07;;;;;;;6.29;100.00;101648.41;5901044;24;20013;-93
2022/09/19 01:46:52;;;;;;;19.38;4.90;;;;;;;6.29;100.00;101651.03;5922194;24;20020;-91
2022/09/19 01:49:44;;;;;;;17.42;4.40;;;;;;;6.32;100.00;101661.56;5930868;24;20023;-91
2022/09/19 01:52:15;;;;;;;19.40;4.60;;;;;;;6.24;100.00;101651.13;5943214;24;20017;-94
2022/09/19 01:54:56;;;;;;;22.10;5.30;;;;;;;6.24;100.00;101646.72;5941627;24;20025;-93
2022/09/19 01:57:39;;;;;;;16.02;4.82;;;;;;;6.15;100.00;101638.13;5929967;24;20019;-93
2022/09/19 02:00:04;;;;;;;18.35;4.95;;;;;;;6.29;100.00;101659.84;5921449;24;20013;-91
2022/09/19 02:02:46;;;;;;;17.45;4.50;;;;;;;6.29;100.00;101661.63;5920544;24;20117;-92
2022/09/19 02:05:17;;;;;;;20.25;4.93;;;;;;;6.27;100.00;101663.41;5951629;23;20118;-91
2022/09/19 02:08:00;;;;;;;17.67;4.32;;;;;;;6.20;100.00;101647.69;6034447;23;20011;-91
2022/09/19 02:10:32;;;;;;;15.43;3.80;;;;;;;6.30;100.00;101656.28;6035619;23;20010;-92
2022/09/19 02:13:03;;;;;;;14.73;4.60;;;;;;;6.30;100.00;101653.66;6010262;23;20017;-92
2022/09/19 02:15:31;;;;;;;18.52;5.53;;;;;;;6.30;100.00;101651.00;6034818;23;20453;-94
2022/09/19 02:18:04;;;;;;;15.52;4.07;;;;;;;6.26;100.00;101662.53;6035362;23;20430;-92
2022/09/19 02:20:32;;;;;;;24.38;4.90;;;;;;;6.15;100.00;101644.25;6036867;23;20034;-93
2022/09/19 02:23:04;;;;;;;13.82;4.25;;;;;;;6.23;100.00;101649.41;6036649;23;20011;-92
2022/09/19 02:25:33;;;;;;;21.58;4.63;;;;;;;6.28;100.00;101657.25;6011266;23;20093;-95
2022/09/19 02:28:22;;;;;;;20.63;4.35;;;;;;;6.21;100.00;101657.34;6038458;23;20011;-92
2022/09/19 02:30:48;;;;;;;26.75;5.00;;;;;;;6.29;100.00;101670.41;6038350;23;20003;-92
2022/09/19 02:33:15;;;;;;;16.88;4.40;;;;;;;6.20;100.00;101649.47;6041566;23;20026;-93
2022/09/19 02:36:16;;;;;;;24.42;5.10;;;;;;;6.29;100.00;101678.34;6020116;23;20036;-93
2022/09/19 02:38:54;;;;;;;18.58;5.60;;;;;;;6.30;100.00;101674.78;6045125;23;20090;-91
2022/09/19 02:41:52;;;;;;;17.02;4.80;;;;;;;6.23;100.00;101662.63;6066395;23;20031;-90
2022/09/19 02:44:30;;;;;;;17.35;5.28;;;;;;;6.19;100.00;101661.81;6065590;23;20085;-93
2022/09/19 02:47:15;;;;;;;20.25;4.47;;;;;;;6.26;100.00;101675.75;6038397;23;20003;-93
2022/09/19 02:49:47;;;;;;;14.15;4.22;;;;;;;6.16;100.00;101658.34;6065263;23;20002;-90
2022/09/19 02:52:20;;;;;;;19.67;5.15;;;;;;;6.25;100.00;101676.66;6065604;23;20082;-94
2022/09/19 02:54:53;;;;;;;15.32;4.45;;;;;;;6.21;100.00;101678.50;6063900;23;20011;-92
2022/09/19 02:57:22;;;;;;;12.98;4.28;;;;;;;6.17;100.00;101674.16;6040376;23;20009;-91
2022/09/19 02:59:52;;;;;;;15.55;4.80;;;;;;;6.18;100.00;101669.75;6065280;23;20011;-91
2022/09/19 03:02:23;;;;;;;17.88;4.30;;;;;;;6.25;100.00;101681.97;6064021;23;20034;-92
2022/09/19 03:04:56;;;;;;;17.15;4.20;;;;;;;6.24;100.00;101677.56;6040372;23;20013;-92
2022/09/19 03:07:48;;;;;;;18.92;4.78;;;;;;;6.18;100.00;101683.84;6065753;23;20421;-91
2022/09/19 03:10:22;;;;;;;16.48;4.10;;;;;;;6.20;100.00;101683.81;6050012;23;20070;-92
2022/09/19 03:12:51;;;;;;;11.52;3.90;;;;;;;6.22;100.00;101684.66;6066643;23;20261;-90
2022/09/19 03:15:26;;;;;;;19.25;4.22;;;;;;;6.19;100.00;101688.25;6067254;23;20033;-92
2022/09/19 03:17:53;;;;;;;14.57;4.13;;;;;;;6.12;100.00;101668.09;6041392;23;20011;-91
2022/09/19 03:20:23;;;;;;;15.70;3.78;;;;;;;6.18;100.00;101683.84;6066052;23;20020;-90
2022/09/19 03:22:49;;;;;;;14.48;4.03;;;;;;;6.17;100.00;101681.22;6067136;23;20017;-91
2022/09/19 03:25:15;;;;;;;12.80;3.63;;;;;;;6.22;100.00;101687.28;6067061;23;20031;-90
2022/09/19 03:27:41;;;;;;;21.08;4.22;;;;;;;6.24;100.00;101683.72;6068909;23;20011;-91
2022/09/19 03:30:09;;;;;;;18.92;4.05;;;;;;;6.23;100.00;101687.28;6067466;23;20012;-92
2022/09/19 03:32:36;;;;;;;18.27;4.43;;;;;;;6.19;100.00;101669.75;6065819;23;20112;-92
2022/09/19 03:35:03;;;;;;;15.77;4.10;;;;;;;6.22;100.00;101685.50;6065922;23;20006;-93
2022/09/19 03:37:29;;;;;;;15.35;3.83;;;;;;;6.17;100.00;101668.00;6065554;23;20492;-91
2022/09/19 03:39:55;;;;;;;14.32;4.03;;;;;;;6.21;100.00;101682.91;6065985;23;20106;-94
2022/09/19 03:42:20;;;;;;;19.35;4.03;;;;;;;6.18;100.00;101681.19;6066517;23;20014;-92
2022/09/19 03:44:46;;;;;;;18.13;4.35;;;;;;;6.25;100.00;101687.25;6039622;23;20463;-92
2022/09/19 03:47:11;;;;;;;13.88;4.28;;;;;;;6.19;100.00;101679.44;6066608;23;20014;-92
2022/09/19 03:49:37;;;;;;;18.48;4.57;;;;;;;6.24;100.00;101689.03;6063070;23;20015;-92
2022/09/19 03:52:02;;;;;;;20.10;4.57;;;;;;;6.21;100.00;101682.91;6062807;23;20090;-92
2022/09/19 03:54:27;;;;;;;19.08;4.78;;;;;;;6.23;100.00;101686.41;6062606;23;20449;-93
2022/09/19 03:56:53;;;;;;;13.82;3.97;;;;;;;6.26;100.00;101691.63;6062723;23;20018;-94
2022/09/19 03:59:19;;;;;;;20.27;4.82;;;;;;;6.23;100.00;101681.13;6063544;23;20090;-95
2022/09/19 04:01:44;;;;;;;20.50;4.82;;;;;;;6.20;100.00;101678.53;6063902;23;20087;-93
2022/09/19 04:04:10;;;;;;;18.45;4.65;;;;;;;6.24;100.00;101682.88;6041722;23;20034;-92
2022/09/19 04:06:36;;;;;;;25.23;5.05;;;;;;;6.40;100.00;101699.31;6066486;23;20065;-90
2022/09/19 04:09:01;;;;;;;18.52;5.05;;;;;;;6.46;100.00;101694.75;6065417;23;20006;-94
2022/09/19 04:11:28;;;;;;;25.45;5.70;;;;;;;6.52;100.00;101698.16;6064242;23;20010;-92
2022/09/19 04:13:54;;;;;;;24.23;4.72;;;;;;;6.53;100.00;101703.44;6065037;23;20022;-94
2022/09/19 04:16:19;;;;;;;18.55;4.47;;;;;;;6.51;100.00;101701.72;6065560;23;20073;-94
2022/09/19 04:18:47;;;;;;;21.92;5.53;;;;;;;6.49;100.00;101697.34;6064788;23;20017;-93
2022/09/19 04:21:16;;;;;;;23.30;5.05;;;;;;;6.53;100.00;101703.44;6066515;23;20041;-92
2022/09/19 04:23:41;;;;;;;19.75;5.10;;;;;;;6.55;100.00;101706.91;6066730;23;20023;-91
2022/09/19 04:26:07;;;;;;;20.15;5.13;;;;;;;6.51;100.00;101701.72;6068214;23;20074;-90
2022/09/19 04:28:33;;;;;;;20.48;4.65;;;;;;;6.44;100.00;101706.28;6085780;23;19994;-94
2022/09/19 04:30:58;;;;;;;15.82;4.43;;;;;;;6.37;100.00;101689.66;6087528;23;19987;-91
2022/09/19 04:33:26;;;;;;;22.17;4.85;;;;;;;6.32;100.00;101688.00;6074706;23;20014;-93
2022/09/19 04:35:51;;;;;;;19.20;4.93;;;;;;;6.40;100.00;101717.81;6064496;23;20062;-90
2022/09/19 04:38:18;;;;;;;13.25;4.05;;;;;;;6.33;100.00;101710.91;6066603;23;20023;-91
2022/09/19 04:40:48;;;;;;;20.95;4.80;;;;;;;6.34;100.00;101710.84;6066599;23;20003;-92
2022/09/19 04:43:18;;;;;;;17.20;4.35;;;;;;;6.30;100.00;101717.09;6065518;23;20485;-93
2022/09/19 04:45:49;;;;;;;15.98;4.30;;;;;;;6.23;100.00;101708.44;6066234;23;20014;-93
2022/09/19 04:48:15;;;;;;;19.92;4.60;;;;;;;6.27;100.00;101722.47;6065616;23;20030;-91
2022/09/19 04:50:50;;;;;;;20.20;4.63;;;;;;;6.29;100.00;101727.72;6063162;23;20018;-90
2022/09/19 04:53:18;;;;;;;15.90;4.15;;;;;;;6.28;100.00;101720.69;6063939;23;20121;-93
2022/09/19 04:55:47;;;;;;;17.08;4.05;;;;;;;6.34;100.00;101731.13;6063946;23;20038;-92
2022/09/19 04:58:15;;;;;;;13.32;3.70;;;;;;;6.28;100.00;101715.41;6065091;23;20007;-90
2022/09/19 05:00:41;;;;;;;16.85;4.78;;;;;;;6.31;100.00;101720.59;6036791;23;20344;-93
2022/09/19 05:03:15;;;;;;;22.08;4.50;;;;;;;6.28;100.00;101712.75;6064972;23;20006;-93
2022/09/19 05:05:44;;;;;;;;;;;;;;;6.31;100.00;101724.16;6038494;23;19999;-92
2022/09/19 05:08:12;;;;;;;15.10;4.65;;;;;;;6.25;100.00;101716.31;6065648;23;20312;-92
2022/09/19 05:10:38;;;;;;;16.80;4.72;;;;;;;6.33;100.00;101724.13;6063782;23;20007;-92
2022/09/19 05:13:03;;;;;;;16.20;4.30;;;;;;;6.46;100.00;101738.84;6067232;23;20448;-92
2022/09/19 05:15:28;;;;;;;17.27;4.60;;;;;;;6.51;100.00;101733.44;6044501;23;20180;-93
2022/09/19 05:17:55;;;;;;;21.92;4.57;;;;;;;6.58;100.00;101735.94;6071663;23;20006;-93
2022/09/19 05:20:25;;;;;;;14.77;4.40;;;;;;;6.63;100.00;101739.38;6078474;23;20015;-93
2022/09/19 05:22:57;;;;;;;18.00;5.43;;;;;;;6.65;100.00;101742.00;6087953;23;20011;-90
2022/09/19 05:25:23;;;;;;;18.52;4.63;;;;;;;6.72;100.00;101746.25;6088146;23;20007;-94
2022/09/19 05:27:48;;;;;;;14.48;4.18;;;;;;;6.79;100.00;101749.66;6070894;23;20066;-92
2022/09/19 05:30:13;;;;;;;20.52;4.22;;;;;;;6.78;100.00;101738.19;6040893;23;20349;-92
2022/09/19 05:32:42;;;;;;;13.38;4.20;;;;;;;6.87;100.00;101751.22;6065931;23;20081;-91
2022/09/19 05:35:08;;;;;;;26.73;5.82;;;;;;;6.91;100.00;101752.03;6038833;23;20038;-93
2022/09/19 05:37:34;;;;;;;19.08;4.25;;;;;;;6.89;100.00;101738.81;6040555;23;20074;-92
2022/09/19 05:40:00;;;;;;;22.33;5.47;;;;;;;6.96;100.00;101745.72;6041810;23;20019;-92
2022/09/19 05:42:25;;;;;;;23.00;6.13;;;;;;;7.06;100.00;101756.13;6041458;23;20013;-94
2022/09/19 05:44:54;;;;;;;20.55;5.93;;;;;;;7.07;100.00;101752.59;6040039;23;20014;-94
2022/09/19 05:47:19;;;;;;;19.77;5.95;;;;;;;7.04;100.00;101742.06;6065672;23;20493;-93
2022/09/19 05:49:44;;;;;;;21.00;5.13;;;;;;;7.07;100.00;101757.88;6066685;23;20062;-92
2022/09/19 05:55:05;;;;;;;18.77;4.32;;;;;;;7.06;100.00;101761.41;5967203;24;20015;-94
2022/09/19 05:57:30;;;;;;;21.67;4.53;;;;;;;7.04;100.00;101765.88;5969461;24;20024;-93
2022/09/19 05:59:56;;;;;;;21.05;6.03;;;;;;;7.03;100.00;101767.66;5943341;24;20468;-94
2022/09/19 06:02:21;;;;;;;17.85;5.28;;;;;;;7.05;100.00;101762.31;5973973;24;20037;-95
2022/09/19 06:04:47;;;;;;;17.15;5.07;;;;;;;7.05;100.00;101773.78;5961107;24;20039;-93
2022/09/19 06:07:12;;;;;;;23.55;5.13;;;;;;;6.99;100.00;101758.03;5954990;24;20436;-95
2022/09/19 06:09:38;;;;;;;21.70;5.35;;;;;;;7.10;100.00;101776.31;5950679;24;20012;-92
2022/09/19 06:12:03;;;;;;;12.07;4.65;;;;;;;7.10;100.00;101768.38;5952814;24;20141;-91
2022/09/19 06:14:28;;;;;;;13.05;4.50;;;;;;;7.14;100.00;101770.94;5952679;24;20491;-94
2022/09/19 06:16:54;;;;;;;22.77;6.38;;;;;;;7.13;100.00;101763.03;5952160;24;20016;-93
2022/09/19 06:19:19;;;;;;;19.13;6.75;;;;;;;7.25;100.00;101781.28;5949975;24;20372;-92
2022/09/19 06:21:45;;;;;;;16.58;6.00;;;;;;;7.41;100.00;101776.53;5949191;24;20088;-91
2022/09/19 06:24:10;;;;;;;15.52;5.80;;;;;;;7.57;100.00;101771.75;5950699;24;20352;-89
2022/09/19 06:26:36;;;;;;;16.98;5.28;;;;;;;7.64;100.00;101778.63;5951174;24;20047;-91
2022/09/19 06:29:03;;;;;;;20.27;5.25;;;;;;;7.80;100.00;101773.84;5948569;24;20447;-90
2022/09/19 06:31:28;;;;;;;22.58;5.47;;;;;;;8.15;100.00;101797.69;6009232;23;20324;-90
2022/09/19 06:33:53;;;;;;;21.27;5.45;;;;;;;8.36;100.00;101796.28;6064909;23;20006;-89
2022/09/19 06:36:19;;;;;;;22.08;5.43;;;;;;;8.60;100.00;101800.06;6065563;23;20010;-89
2022/09/19 06:38:45;;;;;;;19.27;4.75;;;;;;;8.86;100.00;101801.13;6065200;23;20014;-91
2022/09/19 06:41:10;;;;;;;17.02;4.65;;;;;;;9.13;100.00;101799.47;6064566;23;20015;-92
2022/09/19 06:43:36;;;;;;;17.40;6.57;;;;;;;9.30;100.00;101773.25;6064901;23;20081;-91
2022/09/19 06:46:02;;;;;;;14.45;3.88;;;;;;;9.58;100.00;101802.50;6066049;23;20006;-91
2022/09/19 06:48:27;;;;;;;17.67;4.40;;;;;;;9.75;100.00;101803.75;6065665;23;20006;-90
2022/09/19 06:50:53;;;;;;;12.35;3.38;;;;;;;9.81;100.00;101796.44;6068093;23;20449;-89
2022/09/19 06:53:19;;;;;;;13.98;4.57;;;;;;;9.77;100.00;101802.78;6074297;23;20086;-90
2022/09/19 06:55:44;;;;;;;17.02;4.45;;;;;;;9.77;100.00;101810.75;6075007;23;20062;-90
2022/09/19 06:58:11;;;;;;;9.77;3.00;;;;;;;9.69;100.00;101794.16;6073916;23;20073;-88
2022/09/19 07:00:38;;;;;;;9.65;3.55;;;;;;;9.82;100.00;101814.13;6072662;23;20015;-87
2022/09/19 07:03:09;;;;;;;18.75;4.05;;;;;;;9.81;100.00;101820.38;6087892;23;20083;-87
2022/09/19 07:05:37;;;;;;;11.88;3.25;;;;;;;9.80;100.00;101829.28;6089144;23;20006;-88
2022/09/19 07:08:04;;;;;;;13.38;2.83;;;;;;;9.77;100.00;101823.19;6061318;23;20007;-91
2022/09/19 07:10:30;;;;;;;17.75;3.08;;;;;;;9.90;100.00;101827.19;6074627;23;20058;-88
2022/09/19 07:13:01;;;;;;;13.73;3.58;;;;;;;10.04;100.00;101832.06;6058883;23;20011;-88
2022/09/19 07:15:36;;;;;;;9.75;2.95;;;;;;;10.21;100.00;101829.72;6061420;23;20037;-87
2022/09/19 07:18:07;;;;;;;16.42;3.78;;;;;;;10.36;100.00;101838.97;6031694;23;20042;-88
2022/09/19 07:20:34;;;;;;;11.35;3.00;;;;;;;10.31;100.00;101841.81;6028665;23;20007;-87
2022/09/19 07:23:21;;;;;;;13.73;2.97;;;;;;;10.31;100.00;101851.59;6056970;23;20062;-87
2022/09/19 07:25:48;;;;;;;10.15;2.80;;;;;;;10.44;100.00;101843.13;6056240;23;20045;-88
2022/09/19 07:28:16;;;;;;;14.38;2.42;;;;;;;10.33;100.00;101834.66;6033388;23;20349;-87
2022/09/19 07:30:43;;;;;;;9.20;2.30;;;;;;;10.28;100.00;101852.53;6031435;23;20037;-88
2022/09/19 07:33:10;;;;;;;10.70;3.05;;;;;;;10.30;100.00;101861.38;6035928;23;20007;-86
2022/09/19 07:35:37;;;;;;;8.90;2.70;;;;;;;10.85;100.00;101856.78;6057164;23;20006;-86
2022/09/19 07:38:04;;;;;;;10.55;2.90;;;;;;;11.34;100.00;101868.31;6034406;23;20752;-86
2022/09/19 07:40:30;;;;;;;12.52;2.72;;;;;;;11.50;100.00;101868.59;6060228;23;20007;-88
2022/09/19 07:43:01;;;;;;;10.52;2.58;;;;;;;11.64;100.00;101860.91;6060768;23;20013;-89
2022/09/19 07:45:27;;;;;;;8.30;2.40;;;;;;;11.62;98.65;101853.91;6062227;23;20002;-88
2022/09/19 07:47:52;;;;;;;10.90;2.72;;;;;;;11.56;100.00;101856.81;6062510;23;20007;-88
2022/09/19 07:50:18;;;;;;;6.68;2.50;;;;;;;11.50;99.54;101855.28;6030206;23;20524;-88
2022/09/19 07:52:46;;;;;;;11.98;2.53;;;;;;;11.51;100.00;101862.34;6066587;23;20007;-88
2022/09/19 07:55:12;;;;;;;15.02;2.65;;;;;;;11.60;100.00;101871.78;6067026;23;20061;-88
2022/09/19 07:57:38;;;;;;;10.60;3.15;;;;;;;11.84;98.56;101876.19;6075586;23;20013;-88
2022/09/19 08:00:04;;;;;;;10.95;2.47;;;;;;;11.98;99.10;101874.75;6061453;23;20023;-88
2022/09/19 08:02:29;;;;;;;13.32;2.50;;;;;;;12.03;98.29;101878.09;6089573;23;20009;-88
2022/09/19 08:04:55;;;;;;;6.78;2.20;;;;;;;11.99;97.98;101880.03;6060695;23;20010;-88
2022/09/19 08:07:20;;;;;;;11.75;2.55;;;;;;;11.98;96.85;101875.63;6065706;23;20034;-87
2022/09/19 08:09:45;;;;;;;13.85;2.80;;;;;;;11.91;96.99;101875.00;6062059;23;20426;-88
2022/09/19 08:12:11;;;;;;;8.70;2.67;;;;;;;11.92;97.03;101878.56;6064083;23;20009;-89
2022/09/19 08:14:37;;;;;;;11.88;2.35;;;;;;;11.90;99.06;101886.59;6063571;23;20018;-89
2022/09/19 08:17:03;;;;;;;9.10;2.50;;;;;;;12.15;96.81;101889.16;6064096;23;20426;-88
2022/09/19 08:19:28;;;;;;;6.88;2.00;;;;;;;12.45;96.55;101891.47;6062837;23;20003;-88
2022/09/19 08:21:53;;;;;;;11.10;2.35;;;;;;;12.62;96.09;101872.97;6063150;23;20011;-88
2022/09/19 08:24:18;;;;;;;12.43;2.33;;;;;;;12.88;95.36;101887.84;6036988;23;20117;-88
2022/09/19 08:26:44;;;;;;;9.55;1.98;;;;;;;13.06;94.40;101887.97;6037554;23;20089;-88
2022/09/19 08:29:09;;;;;;;10.20;3.13;;;;;;;13.10;90.62;101894.91;6062530;23;20010;-88
2022/09/19 08:31:36;;;;;;;10.60;2.45;;;;;;;13.19;93.05;101905.19;6037438;23;20009;-88
2022/09/19 08:34:02;;;;;;;10.48;2.10;;;;;;;13.29;92.41;101914.56;6037892;23;20209;-87
2022/09/19 08:36:27;;;;;;;8.32;2.33;;;;;;;13.46;91.62;101905.78;6063245;23;20030;-88
2022/09/19 08:38:53;;;;;;;7.82;2.33;;;;;;;13.77;90.13;101899.84;6062105;23;20019;-87
2022/09/19 08:41:30;;;;;;;13.10;1.98;;;;;;;14.03;88.62;101914.66;6062700;23;20026;-88
2022/09/19 08:44:23;;;;;;;14.57;3.20;;;;;;;14.22;89.40;101908.44;6061767;23;20013;-88
2022/09/19 08:47:02;;;;;;;12.98;2.60;;;;;;;14.33;86.04;101912.28;6062137;23;20013;-88
2022/09/19 08:49:38;;;;;;;10.88;2.45;;;;;;;14.70;86.46;101905.13;6061277;23;20017;-88
2022/09/19 08:52:31;;;;;;;14.55;2.50;;;;;;;15.01;86.51;101908.91;6060933;23;20002;-87
2022/09/19 08:54:57;;;;;;;10.27;2.20;;;;;;;15.17;83.60;101915.16;6062726;23;20007;-86
2022/09/19 08:57:36;;;;;;;12.18;2.30;;;;;;;15.10;83.54;101914.63;6061839;23;20089;-88
2022/09/19 09:00:13;;;;;;;8.93;2.17;;;;;;;15.10;81.96;101911.09;6060680;23;20456;-87
2022/09/19 09:02:42;;;;;;;10.70;2.13;;;;;;;15.32;79.14;101911.69;6061419;23;20441;-87
2022/09/19 09:05:12;;;;;;;10.90;2.92;;;;;;;15.41;80.69;101910.31;6061516;23;20053;-88
2022/09/19 09:08:07;;;;;;;7.30;2.03;;;;;;;15.44;80.15;101907.47;6061609;23;20015;-87
2022/09/19 09:10:50;;;;;;;9.57;2.22;;;;;;;15.60;80.07;101926.28;6035713;23;20007;-87
2022/09/19 09:13:33;;;;;;;;;;;;;;;15.80;87.66;101920.72;6062280;23;20358;-88
2022/09/19 09:16:17;;;;;;;8.88;2.13;;;;;;;15.61;81.39;101918.13;6037023;23;19912;-88
2022/09/19 09:19:32;;;;;;;10.45;2.40;;;;;;;17.15;82.40;101911.03;6036147;23;20017;-88
2022/09/19 09:22:18;;;;;;;7.20;1.63;;;;;;;18.73;67.90;101905.31;5919572;24;20024;-89
2022/09/19 09:24:52;;;;;;;11.07;2.03;;;;;;;19.82;67.90;101901.25;5919292;24;20015;-86
2022/09/19 09:27:24;;;;;;;7.07;1.70;;;;;;;21.05;60.81;101904.50;5918287;24;20092;-89
2022/09/19 09:30:01;;;;;;;6.72;1.90;;;;;;;22.44;60.64;101899.63;5920098;24;20105;-90
2022/09/19 09:32:33;;;;;;;8.20;1.67;;;;;;;23.04;55.43;101898.13;5923217;24;20013;-89
2022/09/19 09:35:15;;;;;;;7.60;1.67;;;;;;;23.56;55.63;101904.38;5923175;24;20020;-89
2022/09/19 09:37:57;;;;;;;7.25;1.90;;;;;;;24.74;51.46;101905.34;5929059;24;20055;-88
2022/09/19 09:43:23;;;;;;;7.68;1.50;;;;;;;25.26;46.95;101910.44;5926486;24;20042;-90
2022/09/19 09:45:51;;;;;;;8.25;2.00;;;;;;;24.18;47.46;101906.00;5906596;24;20016;-89
2022/09/19 09:48:29;;;;;;;7.75;1.42;;;;;;;24.62;50.79;101898.31;5930981;24;20020;-89
2022/09/19 09:51:00;;;;;;;8.85;1.90;;;;;;;24.63;48.10;101923.69;5931881;24;20038;-88
2022/09/19 09:53:44;;;;;;;6.78;1.63;;;;;;;24.59;44.54;101921.25;6022641;23;20095;-85
2022/09/19 09:56:45;;;;;;;8.00;1.50;;;;;;;23.28;52.78;101914.09;6053421;23;20102;-89
2022/09/19 10:05:45;;;;;;;6.38;1.65;;;;;;;20.30;56.42;101923.75;6064920;23;20066;-93
2022/09/19 10:08:28;;;;;;;9.30;2.47;;;;;;;19.16;57.46;101922.13;6063431;23;20094;-88
2022/09/19 10:11:12;;;;;;;8.63;1.70;;;;;;;18.23;59.40;101918.53;6063905;23;20299;-89
2022/09/19 10:13:45;;;;;;;7.97;1.80;;;;;;;17.27;59.08;101919.31;6064287;23;20034;-87
2022/09/19 10:16:14;;;;;;;6.70;1.45;;;;;;;16.64;60.86;101913.19;6038747;23;20094;-87
2022/09/19 10:18:48;;;;;;;6.07;1.73;;;;;;;16.43;64.44;101917.13;6035155;23;20453;-87
2022/09/19 10:21:14;;;;;;;7.15;1.52;;;;;;;17.59;63.04;101917.25;6065899;23;20628;-88
2022/09/19 10:23:42;;;;;;;6.93;1.58;;;;;;;20.01;56.36;101903.44;6039784;23;20070;-89
2022/09/19 10:26:14;;;;;;;7.07;1.52;;;;;;;21.75;51.70;101900.75;6065479;23;20014;-88
2022/09/19 10:28:45;;;;;;;7.65;1.75;;;;;;;21.14;52.13;101900.22;6062748;23;20338;-87
2022/09/19 10:31:34;;;;;;;7.60;1.40;;;;;;;19.98;54.60;101911.78;6064641;23;20011;-87
2022/09/19 10:34:04;;;;;;;8.30;1.70;;;;;;;18.63;55.69;101905.06;6065886;23;20030;-88
2022/09/19 10:36:33;;;;;;;9.60;2.88;;;;;;;17.62;58.10;101926.00;6037941;23;20134;-87
2022/09/19 10:39:09;;;;;;;8.15;1.67;;;;;;;16.85;60.29;101918.28;6062524;23;20035;-87
2022/09/19 10:41:35;;;;;;;5.40;1.40;;;;;;;16.32;61.73;101911.50;6040653;23;20026;-87
2022/09/19 10:44:08;;;;;;;7.72;1.35;;;;;;;16.64;60.92;101915.88;6068720;23;20011;-87
2022/09/19 10:46:41;;;;;;;4.28;1.27;;;;;;;17.49;58.44;101924.19;6071466;23;20013;-87
2022/09/19 10:49:20;;;;;;;4.88;1.27;;;;;;;18.74;58.39;101916.03;6072609;23;20034;-88
2022/09/19 10:51:48;;;;;;;7.40;1.23;;;;;;;19.58;52.91;101909.25;6076923;23;20002;-87
2022/09/19 10:54:43;;;;;;;7.78;1.77;;;;;;;19.44;55.92;101917.47;6073846;23;20006;-84
2022/09/19 10:57:44;;;;;;;7.05;1.65;;;;;;;18.78;59.82;101901.38;6075620;23;20053;-87
2022/09/19 11:00:30;;;;;;;7.88;1.40;;;;;;;18.31;58.66;101907.22;6063594;23;20009;-86
2022/09/19 11:02:57;;;;;;;5.13;1.30;;;;;;;17.36;58.06;101905.28;6062239;23;20003;-86
2022/09/19 11:05:30;;;;;;;7.35;1.58;;;;;;;16.74;60.16;101924.28;6063699;23;20017;-85
2022/09/19 11:08:00;;;;;;;6.63;1.77;;;;;;;16.26;64.55;101925.28;6035987;23;20470;-85
2022/09/19 11:10:40;;;;;;;10.13;2.58;;;;;;;15.40;70.97;101930.91;6063543;23;19999;-86
2022/09/19 11:13:16;;;;;;;8.57;2.22;;;;;;;14.50;75.70;101924.00;6062332;23;20106;-85
2022/09/19 11:15:59;;;;;;;10.60;3.38;;;;;;;14.23;77.40;101921.72;6063796;23;20142;-86
2022/09/19 11:19:07;;;;;;;6.27;2.03;;;;;;;14.49;78.13;101928.50;6036634;23;20007;-86
2022/09/19 11:22:15;;;;;;;9.65;1.98;;;;;;;15.23;77.43;101909.50;6023460;23;20010;-87
2022/09/19 11:25:12;;;;;;;5.68;1.65;;;;;;;17.99;70.60;101918.31;6037290;23;20011;-87
2022/09/19 11:27:43;;;;;;;6.10;1.30;;;;;;;19.74;59.43;101914.44;6062093;23;20017;-88
2022/09/19 11:30:18;;;;;;;8.85;1.60;;;;;;;20.14;59.16;101910.53;6063344;23;20010;-88
2022/09/19 11:33:02;;;;;;;7.88;2.30;;;;;;;21.68;57.11;101902.25;6062990;23;20010;-87
2022/09/19 11:35:35;;;;;;;7.28;3.05;;;;;;;23.54;48.45;101914.53;6061834;23;20094;-85
2022/09/19 11:38:19;;;;;;;5.20;2.00;;;;;;;23.51;49.37;101920.25;6060662;23;20114;-85
2022/09/19 11:41:16;;;;;;;10.88;1.45;;;;;;;22.28;47.44;101924.44;6035707;23;20429;-87
2022/09/19 11:44:10;;;;;;;10.57;1.38;;;;;;;21.15;52.03;101934.41;6062509;23;20003;-87
2022/09/19 11:47:03;;;;;;;4.82;1.23;;;;;;;20.32;55.89;101920.97;6061701;23;20145;-91
2022/09/19 11:49:52;;;;;;;6.20;1.42;;;;;;;19.70;53.58;101916.50;6062256;23;20362;-89
2022/09/19 11:52:43;;;;;;;7.95;1.20;;;;;;;19.13;55.87;101914.22;6062607;23;20330;-88
2022/09/19 19:06:00;;;;;;;11.00;5.00;;;;;;;12.88;87.34;102053.50;6093387;23;20053;-89
2022/09/19 19:08:26;;;;;;;5.80;2.85;;;;;;;12.73;86.70;102032.75;6092408;23;20022;-87